首页
METAR-TAF:

METAR-TAF

机场 :

舊金山國際機場

旧金山, 加利福尼亚州, 美国

纬度: 37-37-11N, 经度: 122-21-53W, 海拔: 3米

当前天气观测

该预报发布于1小时和5分钟前的00:56 UTC
风速16节,风向西转西北
温度 14°C
湿度 77%
气压 1013 hPa
能見度: 16.1公里
少量云层高于1000英尺

METAR: KSFO 220056Z 29016KT 10SM FEW010 14/10 A2992 RMK AO2 SLP130 T01440100

时间: 19:01 (02:01 UTC)

预报

该预报发布于2小时和35分钟前的23:26 UTC
预报有效从22日的 00点(UTC)到 23日的 06点(UTC)
风速18节,风向西转西北
能見度: 10公里
少量云层高于1100英尺
从 22日的 0400点(UTC)
风速11节,风向西转西北
能見度: 10公里
少量云层高于1000英尺
从 22日的 0900点(UTC)
风速5节,风向西转西北
能見度: 10公里
散云层高于900英尺
从 22日的 1300点(UTC)
风速4节,风向多变
能見度: 10公里
多云层高于1000英尺
从 22日的 1800点(UTC)
风速7节,风向西
能見度: 10公里
散云层高于1200英尺
从 22日的 2000点(UTC)
风速15节,风向西转西北
能見度: 10公里
少量云层高于1500英尺
从 23日的 0400点(UTC)
风速10节,风向西转西北
能見度: 10公里
少量云层高于1000英尺

TAF: KSFO 212326Z 2200/2306 30018KT P6SM FEW011 FM220400 29011KT P6SM FEW010 FM220900 29005KT P6SM SCT009 FM221300 VRB04KT P6SM BKN010 FM221800 28007KT P6SM SCT012 FM222000 29015KT P6SM FEW015 FM230400 29010KT P6SM FEW010

超过4000个机场的气象观测和天气预报(METAR&TAF报告)。

可查询的气象台以黄色和红色小点在地图上表示。

将鼠标移到小点上方,可查看气象台名称。

然后点击查看天气观测和预报。

如需切换地图:点击带黑十字的绿色按钮放大地图;点击带横线的绿色按钮缩小地图;或者点击绿色箭头查看邻近地区的地图。


METAR-TAF: